createdAt,value
2023-04-26T00:00:20.173Z,8.27
2023-04-26T00:03:18.293Z,7.80
2023-04-26T00:06:16.939Z,7.43
2023-04-26T00:09:15.188Z,7.20
2023-04-26T00:12:13.001Z,7.43
2023-04-26T00:15:11.853Z,7.22
2023-04-26T00:18:09.663Z,7.80
2023-04-26T00:21:07.733Z,6.90
2023-04-26T00:24:06.454Z,8.55
2023-04-26T00:27:09.747Z,7.57
2023-04-26T00:33:05.682Z,6.90
2023-04-26T00:36:03.706Z,6.70
2023-04-26T00:39:01.794Z,6.45
2023-04-26T00:41:59.901Z,7.20
2023-04-26T00:44:58.305Z,7.05
2023-04-26T00:47:56.765Z,7.32
2023-04-26T00:50:54.880Z,7.10
2023-04-26T00:53:53.044Z,7.05
2023-04-26T00:56:53.773Z,6.50
2023-04-26T00:59:51.994Z,6.38
2023-04-26T01:02:50.247Z,6.60
2023-04-26T01:05:48.878Z,7.30
2023-04-26T01:08:47.612Z,7.35
2023-04-26T01:11:46.091Z,6.72
2023-04-26T01:14:44.823Z,7.00
2023-04-26T01:17:45.042Z,7.20
2023-04-26T01:20:43.774Z,6.90
2023-04-26T01:23:41.682Z,6.65
2023-04-26T01:26:46.131Z,7.30
2023-04-26T01:29:44.376Z,6.70
2023-04-26T01:32:42.456Z,7.88
2023-04-26T01:35:40.417Z,7.20
2023-04-26T01:38:38.679Z,8.07
2023-04-26T01:41:37.208Z,8.57
2023-04-26T01:44:35.136Z,9.23
2023-04-26T01:47:32.952Z,8.95
2023-04-26T01:50:30.862Z,8.35
2023-04-26T01:53:28.692Z,10.18
2023-04-26T01:56:27.027Z,9.35
2023-04-26T01:59:25.019Z,10.30
2023-04-26T02:02:23.119Z,9.65
2023-04-26T02:05:21.057Z,9.98
2023-04-26T02:08:19.259Z,10.73
2023-04-26T02:11:17.160Z,10.50
2023-04-26T02:14:16.297Z,10.23
2023-04-26T02:17:15.228Z,11.23
2023-04-26T02:20:13.594Z,11.65
2023-04-26T02:23:12.223Z,10.68
2023-04-26T02:26:10.168Z,11.57
2023-04-26T02:29:08.065Z,10.48
2023-04-26T02:32:06.433Z,11.07
2023-04-26T02:35:05.744Z,11.20
2023-04-26T02:38:04.175Z,10.93
2023-04-26T02:41:03.187Z,12.93
2023-04-26T02:44:01.085Z,10.95
2023-04-26T02:46:59.251Z,11.32
2023-04-26T02:49:57.631Z,11.88
2023-04-26T02:52:55.434Z,12.48
2023-04-26T02:55:53.325Z,12.30
2023-04-26T02:58:51.559Z,12.88
2023-04-26T03:01:49.717Z,12.48
2023-04-26T03:04:47.891Z,13.82
2023-04-26T03:07:45.815Z,12.52
2023-04-26T03:10:46.523Z,15.63
2023-04-26T03:13:44.590Z,13.88
2023-04-26T03:16:43.800Z,15.60
2023-04-26T03:19:41.701Z,13.98
2023-04-26T03:22:39.806Z,13.13
2023-04-26T03:25:38.042Z,15.48
2023-04-26T03:28:36.292Z,13.95
2023-04-26T03:31:34.303Z,15.43
2023-04-26T03:34:32.246Z,11.70
2023-04-26T03:37:30.257Z,13.73
2023-04-26T03:40:28.032Z,11.82
2023-04-26T03:43:25.936Z,11.30
2023-04-26T03:46:23.829Z,11.90
2023-04-26T03:49:21.791Z,12.55
2023-04-26T03:52:20.622Z,11.75
2023-04-26T03:55:18.659Z,14.35
2023-04-26T03:58:16.433Z,14.55
2023-04-26T04:01:14.461Z,15.02
2023-04-26T04:04:12.535Z,14.20
2023-04-26T04:07:10.798Z,12.88
2023-04-26T04:10:10.606Z,12.07
2023-04-26T04:13:08.618Z,13.13
2023-04-26T04:16:07.536Z,14.50
2023-04-26T04:19:08.242Z,14.40
2023-04-26T04:22:06.319Z,14.68
2023-04-26T04:25:06.583Z,14.65
2023-04-26T04:28:04.720Z,11.82
2023-04-26T04:31:02.704Z,13.90
2023-04-26T04:34:00.487Z,13.18
2023-04-26T04:36:58.464Z,13.57
2023-04-26T04:39:57.774Z,13.25
2023-04-26T04:42:56.117Z,10.85
2023-04-26T04:45:54.446Z,12.52
2023-04-26T04:48:52.805Z,11.82
2023-04-26T04:51:51.017Z,12.43
2023-04-26T04:54:49.473Z,12.02
2023-04-26T04:57:47.288Z,12.02
2023-04-26T05:00:46.379Z,11.68
2023-04-26T05:03:44.341Z,11.30
2023-04-26T05:06:42.541Z,11.10
2023-04-26T05:09:40.312Z,12.02
2023-04-26T05:12:38.823Z,11.23
2023-04-26T05:15:39.756Z,9.82
2023-04-26T05:18:37.725Z,10.98
2023-04-26T05:21:35.569Z,11.18
2023-04-26T05:24:33.753Z,11.57
2023-04-26T05:27:31.656Z,8.90
2023-04-26T05:30:29.635Z,9.00
2023-04-26T05:33:28.529Z,8.48
2023-04-26T05:36:29.629Z,9.85
2023-04-26T05:39:27.777Z,9.27
2023-04-26T05:42:25.728Z,8.85
2023-04-26T05:45:23.562Z,8.48
2023-04-26T05:48:23.928Z,8.82
2023-04-26T05:51:22.201Z,9.00
2023-04-26T05:54:20.136Z,8.55
2023-04-26T05:57:19.515Z,8.88
2023-04-26T06:00:20.065Z,9.95
2023-04-26T06:03:18.066Z,9.70
2023-04-26T06:06:16.547Z,8.93
2023-04-26T06:09:14.402Z,10.02
2023-04-26T06:12:12.948Z,8.77
2023-04-26T06:15:11.544Z,7.97
2023-04-26T06:18:09.536Z,10.10
2023-04-26T06:21:07.792Z,9.52
2023-04-26T06:24:06.034Z,9.05
2023-04-26T06:27:03.901Z,9.55
2023-04-26T06:30:01.885Z,7.75
2023-04-26T06:33:00.751Z,9.50
2023-04-26T06:35:58.725Z,10.10
2023-04-26T06:38:56.507Z,10.55
2023-04-26T06:41:54.644Z,12.02
2023-04-26T06:44:52.447Z,10.90
2023-04-26T06:47:53.756Z,10.43
2023-04-26T06:50:51.629Z,10.35
2023-04-26T06:53:50.449Z,11.50
2023-04-26T06:56:48.397Z,10.63
2023-04-26T06:59:46.308Z,10.65
2023-04-26T07:02:44.229Z,9.80
2023-04-26T07:05:42.349Z,9.40
2023-04-26T07:08:40.101Z,9.68
2023-04-26T07:11:37.982Z,8.95
2023-04-26T07:14:39.623Z,9.88
2023-04-26T07:17:37.554Z,9.38
2023-04-26T07:20:35.398Z,9.88
2023-04-26T07:23:33.648Z,10.82
2023-04-26T07:26:32.010Z,10.25
2023-04-26T07:29:29.888Z,11.00
2023-04-26T07:32:27.893Z,10.57
2023-04-26T07:35:26.499Z,11.10
2023-04-26T07:38:24.883Z,11.10
2023-04-26T07:41:22.844Z,11.70
2023-04-26T07:44:20.593Z,11.25
2023-04-26T07:47:18.513Z,10.13
2023-04-26T07:50:16.388Z,10.48
2023-04-26T07:53:14.309Z,8.90
2023-04-26T07:56:12.155Z,10.43
2023-04-26T07:59:10.036Z,10.65
2023-04-26T08:02:07.901Z,10.57
2023-04-26T08:05:08.383Z,9.88
2023-04-26T08:08:06.363Z,8.63
2023-04-26T08:11:08.693Z,8.75
2023-04-26T08:14:06.451Z,8.43
2023-04-26T08:17:04.379Z,9.40
2023-04-26T08:20:02.269Z,9.07
2023-04-26T08:23:00.816Z,10.25
2023-04-26T08:25:58.627Z,10.30
2023-04-26T08:28:57.894Z,12.38
2023-04-26T08:31:55.990Z,12.90
2023-04-26T08:34:53.885Z,11.02
2023-04-26T08:37:52.760Z,10.05
2023-04-26T08:40:52.206Z,10.73
2023-04-26T08:43:51.017Z,10.00
2023-04-26T08:47:14.160Z,12.13
2023-04-26T08:50:15.100Z,12.57
2023-04-26T08:53:17.512Z,11.55
2023-04-26T08:56:15.577Z,10.98
2023-04-26T08:59:15.144Z,11.02
2023-04-26T09:02:18.368Z,13.23
2023-04-26T09:05:16.474Z,12.63
2023-04-26T09:08:18.160Z,11.50
2023-04-26T09:11:16.105Z,14.82
2023-04-26T09:14:13.937Z,11.77
2023-04-26T09:17:37.238Z,12.63
2023-04-26T09:20:35.085Z,12.15
2023-04-26T09:23:33.648Z,12.27
2023-04-26T09:26:31.720Z,12.52
2023-04-26T09:29:29.592Z,11.65
2023-04-26T09:32:28.157Z,10.82
2023-04-26T09:35:30.048Z,10.60
2023-04-26T09:38:29.368Z,12.98
2023-04-26T09:41:44.625Z,13.13
2023-04-26T09:44:42.473Z,10.88
2023-04-26T09:47:40.526Z,12.45
2023-04-26T09:50:38.385Z,13.10
2023-04-26T09:53:39.176Z,12.93
2023-04-26T09:56:37.068Z,12.18
2023-04-26T09:59:44.142Z,13.25
2023-04-26T10:02:42.382Z,11.88
2023-04-26T10:05:40.602Z,11.15
2023-04-26T10:08:38.431Z,13.45
2023-04-26T10:11:38.886Z,12.85
2023-04-26T10:14:37.554Z,13.02
2023-04-26T10:17:35.454Z,11.25
2023-04-26T10:20:33.978Z,12.23
2023-04-26T10:23:33.824Z,13.85
2023-04-26T10:26:57.739Z,14.35
2023-04-26T10:30:10.799Z,13.50
2023-04-26T10:33:14.493Z,12.88
2023-04-26T10:36:14.395Z,13.73
2023-04-26T10:39:22.661Z,12.05
2023-04-26T10:42:26.983Z,11.85
2023-04-26T10:45:28.373Z,11.38
2023-04-26T10:48:32.505Z,11.80
2023-04-26T10:51:30.293Z,11.98
2023-04-26T10:54:51.360Z,13.40
2023-04-26T10:57:52.857Z,12.85
2023-04-26T11:01:07.761Z,14.55
2023-04-26T11:04:10.742Z,12.50
2023-04-26T11:10:11.046Z,11.88
2023-04-26T11:13:09.218Z,12.18
2023-04-26T11:16:09.079Z,10.77
2023-04-26T11:19:07.259Z,13.60
2023-04-26T11:22:08.020Z,13.65
2023-04-26T11:25:06.451Z,11.10
2023-04-26T11:28:04.589Z,12.05
2023-04-26T11:31:04.738Z,12.73
2023-04-26T11:34:05.750Z,11.95
2023-04-26T11:37:05.350Z,11.48
2023-04-26T11:40:06.513Z,11.98
2023-04-26T11:43:06.659Z,11.95
2023-04-26T11:46:06.288Z,12.05
2023-04-26T11:49:04.311Z,10.98
2023-04-26T11:52:02.930Z,12.52
2023-04-26T11:55:05.207Z,13.23
2023-04-26T11:58:11.561Z,12.98
2023-04-26T12:01:09.494Z,12.55
2023-04-26T12:04:11.158Z,13.63
2023-04-26T12:07:10.016Z,12.80
2023-04-26T12:10:26.394Z,12.32
2023-04-26T12:13:26.385Z,12.35
2023-04-26T12:16:26.745Z,13.68
2023-04-26T12:19:25.409Z,12.88
2023-04-26T12:22:23.220Z,12.50
2023-04-26T12:25:21.147Z,12.68
2023-04-26T12:28:18.937Z,13.15
2023-04-26T12:31:16.873Z,13.60
2023-04-26T12:34:14.804Z,13.27
2023-04-26T12:37:12.684Z,13.23
2023-04-26T12:40:11.344Z,13.60
2023-04-26T12:43:09.572Z,13.82
2023-04-26T12:46:07.393Z,13.90
2023-04-26T12:49:05.772Z,14.30
2023-04-26T12:52:04.102Z,13.18
2023-04-26T12:55:02.122Z,14.43
2023-04-26T12:58:00.049Z,13.52
2023-04-26T13:00:58.088Z,14.68
2023-04-26T13:03:57.131Z,14.10
2023-04-26T13:06:55.486Z,12.82
2023-04-26T13:09:53.413Z,16.88
2023-04-26T13:12:51.382Z,14.35
2023-04-26T13:15:49.289Z,12.82
2023-04-26T13:18:47.319Z,26.27
2023-04-26T13:21:45.118Z,16.52
2023-04-26T13:24:43.033Z,11.55
2023-04-26T13:27:40.836Z,11.18
2023-04-26T13:30:38.723Z,11.13
2023-04-26T13:33:36.668Z,10.60
2023-04-26T13:36:35.012Z,10.52
2023-04-26T13:39:32.910Z,10.48
2023-04-26T13:42:30.877Z,9.80
2023-04-26T13:45:28.732Z,8.98
2023-04-26T13:48:26.824Z,9.27
2023-04-26T13:51:27.469Z,7.90
2023-04-26T13:54:26.738Z,7.95
2023-04-26T13:57:24.497Z,7.88
2023-04-26T14:00:23.364Z,7.85
2023-04-26T14:03:21.355Z,6.63
2023-04-26T14:06:19.339Z,7.78
2023-04-26T14:09:17.994Z,7.10
2023-04-26T14:12:15.936Z,7.07
2023-04-26T14:15:13.778Z,6.72
2023-04-26T14:18:11.938Z,7.75
2023-04-26T14:21:09.730Z,7.35
2023-04-26T14:24:07.959Z,7.78
2023-04-26T14:27:05.728Z,7.55
2023-04-26T14:30:03.679Z,8.45
2023-04-26T14:33:01.859Z,8.13
2023-04-26T14:36:00.339Z,8.77
2023-04-26T14:38:58.137Z,11.57
2023-04-26T14:41:57.454Z,12.32
2023-04-26T14:44:55.495Z,14.52
2023-04-26T14:47:53.500Z,14.23
2023-04-26T14:50:58.398Z,13.48
2023-04-26T14:53:56.433Z,11.45
2023-04-26T14:56:55.029Z,12.13
2023-04-26T14:59:52.962Z,11.15
2023-04-26T15:02:50.844Z,11.50
2023-04-26T15:05:48.832Z,11.90
2023-04-26T15:08:46.788Z,11.50
2023-04-26T15:11:44.701Z,10.73
2023-04-26T15:14:42.535Z,11.35
2023-04-26T15:17:40.438Z,11.18
2023-04-26T15:20:41.996Z,11.15
2023-04-26T15:23:39.981Z,11.43
2023-04-26T15:26:38.211Z,12.27
2023-04-26T15:29:36.626Z,11.82
2023-04-26T15:32:34.390Z,11.02
2023-04-26T15:35:32.348Z,11.57
2023-04-26T15:38:30.135Z,11.57
2023-04-26T15:41:28.129Z,11.75
2023-04-26T15:44:26.015Z,11.93
2023-04-26T15:47:23.968Z,11.85
2023-04-26T15:50:21.940Z,12.13
2023-04-26T15:53:20.434Z,11.65
2023-04-26T15:56:18.751Z,11.38
2023-04-26T15:59:17.913Z,11.10
2023-04-26T16:02:15.984Z,11.45
2023-04-26T16:05:14.189Z,11.48
2023-04-26T16:08:12.040Z,10.93
2023-04-26T16:11:10.219Z,12.57
2023-04-26T16:14:08.036Z,12.30
2023-04-26T16:17:06.033Z,11.30
2023-04-26T16:20:07.160Z,12.43
2023-04-26T16:23:05.226Z,12.70
2023-04-26T16:26:03.842Z,12.60
2023-04-26T16:29:02.120Z,12.23
2023-04-26T16:32:00.220Z,12.07
2023-04-26T16:34:58.298Z,12.98
2023-04-26T16:37:56.204Z,12.63
2023-04-26T16:40:58.511Z,12.50
2023-04-26T16:43:56.672Z,12.50
2023-04-26T16:46:54.595Z,12.93
2023-04-26T16:49:52.459Z,11.48
2023-04-26T16:52:50.362Z,12.70
2023-04-26T16:55:49.184Z,12.48
2023-04-26T16:58:47.370Z,13.15
2023-04-26T17:01:45.161Z,11.50
2023-04-26T17:04:43.302Z,12.07
2023-04-26T17:07:41.293Z,11.93
2023-04-26T17:10:39.437Z,11.73
2023-04-26T17:13:38.232Z,11.75
2023-04-26T17:16:36.441Z,12.40
2023-04-26T17:19:34.306Z,12.82
2023-04-26T17:22:32.188Z,12.57
2023-04-26T17:25:30.294Z,12.85
2023-04-26T17:28:28.235Z,13.35
2023-04-26T17:31:26.055Z,14.32
2023-04-26T17:34:24.050Z,13.10
2023-04-26T17:37:21.983Z,12.68
2023-04-26T17:40:20.284Z,13.35
2023-04-26T17:43:18.316Z,13.38
2023-04-26T17:46:16.467Z,13.63
2023-04-26T17:49:14.314Z,13.23
2023-04-26T17:52:12.307Z,13.68
2023-04-26T17:55:10.390Z,12.68
2023-04-26T17:58:08.623Z,13.02
2023-04-26T18:01:06.460Z,14.93
2023-04-26T18:04:04.706Z,13.05
2023-04-26T18:07:02.645Z,13.68
2023-04-26T18:10:00.483Z,12.95
2023-04-26T18:12:58.259Z,13.65
2023-04-26T18:15:56.740Z,14.35
2023-04-26T18:18:54.558Z,13.98
2023-04-26T18:21:54.163Z,13.20
2023-04-26T18:24:51.939Z,14.10
2023-04-26T18:27:49.919Z,14.15
2023-04-26T18:30:47.836Z,13.68
2023-04-26T18:33:48.741Z,13.45
2023-04-26T18:36:46.681Z,13.60
2023-04-26T18:39:44.694Z,13.93
2023-04-26T18:42:42.630Z,13.68
2023-04-26T18:45:40.639Z,13.88
2023-04-26T18:48:38.395Z,14.00
2023-04-26T18:51:36.489Z,13.65
2023-04-26T18:54:34.734Z,13.85
2023-04-26T18:57:33.164Z,14.02
2023-04-26T19:00:31.015Z,13.50
2023-04-26T19:03:29.354Z,13.63
2023-04-26T19:06:28.674Z,13.93
2023-04-26T19:09:26.592Z,12.68
2023-04-26T19:12:25.040Z,13.70
2023-04-26T19:15:22.899Z,12.98
2023-04-26T19:18:20.676Z,13.30
2023-04-26T19:21:18.576Z,14.18
2023-04-26T19:24:16.464Z,13.00
2023-04-26T19:27:14.374Z,13.68
2023-04-26T19:30:12.720Z,13.38
2023-04-26T19:33:10.624Z,13.00
2023-04-26T19:36:11.143Z,13.73
2023-04-26T19:39:09.317Z,14.32
2023-04-26T19:42:07.121Z,12.40
2023-04-26T19:45:05.287Z,12.55
2023-04-26T19:48:03.088Z,12.75
2023-04-26T19:51:01.440Z,12.85
2023-04-26T19:53:59.215Z,12.90
2023-04-26T19:56:57.352Z,13.07
2023-04-26T19:59:55.135Z,12.90
2023-04-26T20:02:53.517Z,13.50
2023-04-26T20:05:51.651Z,13.30
2023-04-26T20:08:49.676Z,12.63
2023-04-26T20:11:48.084Z,12.57
2023-04-26T20:14:46.131Z,12.43
2023-04-26T20:17:44.645Z,12.85
2023-04-26T20:20:42.791Z,11.77
2023-04-26T20:23:40.695Z,12.68
2023-04-26T20:26:38.719Z,13.05
2023-04-26T20:29:36.678Z,12.48
2023-04-26T20:32:36.173Z,12.95
2023-04-26T20:35:34.354Z,11.90
2023-04-26T20:38:32.688Z,12.27
2023-04-26T20:41:30.677Z,11.95
2023-04-26T20:44:28.679Z,13.45
2023-04-26T20:47:26.613Z,12.13
2023-04-26T20:50:24.770Z,12.25
2023-04-26T20:53:22.710Z,13.57
2023-04-26T20:56:20.628Z,13.75
2023-04-26T20:59:18.420Z,12.95
2023-04-26T21:02:20.219Z,12.57
2023-04-26T21:05:18.098Z,12.63
2023-04-26T21:08:16.081Z,12.48
2023-04-26T21:11:14.052Z,11.25
2023-04-26T21:14:11.942Z,11.45
2023-04-26T21:17:09.702Z,11.38
2023-04-26T21:20:08.275Z,11.05
2023-04-26T21:23:06.180Z,11.15
2023-04-26T21:26:04.080Z,11.23
2023-04-26T21:29:01.958Z,12.07
2023-04-26T21:31:59.882Z,10.63
2023-04-26T21:34:57.657Z,11.38
2023-04-26T21:37:55.539Z,11.35
2023-04-26T21:40:53.544Z,10.25
2023-04-26T21:43:51.471Z,10.60
2023-04-26T21:46:49.357Z,11.43
2023-04-26T21:49:47.302Z,10.32
2023-04-26T21:52:45.071Z,9.90
2023-04-26T21:55:43.193Z,9.60
2023-04-26T21:58:42.357Z,9.35
2023-04-26T22:01:40.260Z,9.55
2023-04-26T22:04:38.023Z,9.05
2023-04-26T22:07:36.319Z,9.35
2023-04-26T22:10:34.485Z,9.90
2023-04-26T22:13:33.519Z,9.35
2023-04-26T22:16:32.432Z,8.68
2023-04-26T22:19:30.390Z,8.90
2023-04-26T22:22:28.195Z,8.57
2023-04-26T22:25:27.298Z,8.73
2023-04-26T22:28:25.132Z,9.45
2023-04-26T22:31:23.086Z,7.72
2023-04-26T22:34:21.022Z,8.48
2023-04-26T22:37:21.120Z,8.43
2023-04-26T22:40:19.306Z,8.68
2023-04-26T22:43:17.403Z,8.75
2023-04-26T22:46:15.188Z,8.63
2023-04-26T22:49:13.357Z,8.38
2023-04-26T22:52:17.326Z,8.48
2023-04-26T22:55:26.494Z,7.55
2023-04-26T22:58:24.310Z,8.18
2023-04-26T23:01:22.321Z,7.72
2023-04-26T23:04:20.152Z,8.20
2023-04-26T23:07:18.082Z,7.90
2023-04-26T23:10:15.903Z,7.35
2023-04-26T23:13:15.286Z,7.70
2023-04-26T23:16:14.991Z,7.65
2023-04-26T23:19:13.507Z,7.60
2023-04-26T23:22:11.790Z,7.50
2023-04-26T23:25:10.286Z,8.07
2023-04-26T23:28:08.244Z,8.05
2023-04-26T23:31:07.282Z,7.18
2023-04-26T23:34:05.222Z,8.32
2023-04-26T23:37:07.944Z,7.65
2023-04-26T23:40:07.207Z,7.03
2023-04-26T23:43:06.804Z,7.95
2023-04-26T23:46:04.706Z,6.82
2023-04-26T23:49:02.673Z,7.85
2023-04-26T23:52:00.462Z,8.40
2023-04-26T23:54:58.473Z,8.60
2023-04-26T23:57:56.463Z,9.15
